createdAt,value
2019-02-25T00:01:34.066Z,62.70
2019-02-25T00:04:00.872Z,62.60
2019-02-25T00:06:27.599Z,62.30
2019-02-25T00:08:54.344Z,62.30
2019-02-25T00:11:21.125Z,62.20
2019-02-25T00:13:47.848Z,62.60
2019-02-25T00:16:14.644Z,62.70
2019-02-25T00:18:41.369Z,62.60
2019-02-25T00:21:08.099Z,62.10
2019-02-25T00:23:34.894Z,62.60
2019-02-25T00:26:01.628Z,62.90
2019-02-25T00:28:28.346Z,61.80
2019-02-25T00:30:55.204Z,63.20
2019-02-25T00:33:21.921Z,63.20
2019-02-25T00:35:48.639Z,63.20
2019-02-25T00:38:15.454Z,62.90
2019-02-25T00:40:42.189Z,62.90
2019-02-25T00:43:08.921Z,62.80
2019-02-25T00:45:35.782Z,63.10
2019-02-25T00:48:02.831Z,63.50
2019-02-25T00:50:29.708Z,63.20
2019-02-25T00:52:56.419Z,62.60
2019-02-25T00:55:23.138Z,62.80
2019-02-25T00:57:49.933Z,63.10
2019-02-25T01:00:20.852Z,62.90
2019-02-25T01:02:47.865Z,62.70
2019-02-25T01:05:15.429Z,63.20
2019-02-25T01:07:42.228Z,62.80
2019-02-25T01:10:13.945Z,62.60
2019-02-25T01:12:44.488Z,63.30
2019-02-25T01:15:11.711Z,62.90
2019-02-25T01:17:38.502Z,62.90
2019-02-25T01:20:10.996Z,62.90
2019-02-25T01:22:37.712Z,63.40
2019-02-25T01:25:13.945Z,63.20
2019-02-25T01:27:40.649Z,63.40
2019-02-25T01:30:11.859Z,63.20
2019-02-25T01:32:38.602Z,63.90
2019-02-25T01:35:09.250Z,63.90
2019-02-25T01:37:35.990Z,63.40
2019-02-25T01:40:06.741Z,63.40
2019-02-25T01:42:33.526Z,63.70
2019-02-25T01:45:00.283Z,63.30
2019-02-25T01:47:27.002Z,63.00
2019-02-25T01:49:53.770Z,62.90
2019-02-25T01:52:20.501Z,63.20
2019-02-25T01:54:47.304Z,63.20
2019-02-25T01:57:14.007Z,62.40
2019-02-25T01:59:40.720Z,63.00
2019-02-25T02:02:07.519Z,63.20
2019-02-25T02:04:34.247Z,63.40
2019-02-25T02:07:00.986Z,63.00
2019-02-25T02:09:27.774Z,62.70
2019-02-25T02:11:54.507Z,63.30
2019-02-25T02:14:21.219Z,63.30
2019-02-25T02:16:48.032Z,63.40
2019-02-25T02:19:14.755Z,63.60
2019-02-25T02:21:41.493Z,63.20
2019-02-25T02:24:08.276Z,63.00
2019-02-25T02:26:34.985Z,62.80
2019-02-25T02:29:02.023Z,62.60
2019-02-25T02:31:28.811Z,63.00
2019-02-25T02:33:55.595Z,63.80
2019-02-25T02:36:22.307Z,63.20
2019-02-25T02:38:49.100Z,63.50
2019-02-25T02:41:15.816Z,63.70
2019-02-25T02:43:42.580Z,64.00
2019-02-25T02:46:26.934Z,63.90
2019-02-25T02:48:58.831Z,64.00
2019-02-25T02:51:25.540Z,64.70
2019-02-25T02:53:52.293Z,63.80
2019-02-25T02:56:19.069Z,63.80
2019-02-25T02:58:45.811Z,64.10
2019-02-25T03:01:12.604Z,64.30
2019-02-25T03:03:39.339Z,65.10
2019-02-25T03:06:06.058Z,64.60
2019-02-25T03:08:32.868Z,64.60
2019-02-25T03:10:59.589Z,64.70
2019-02-25T03:13:26.325Z,64.50
2019-02-25T03:15:53.116Z,64.20
2019-02-25T03:18:19.821Z,64.10
2019-02-25T03:20:46.565Z,64.10
2019-02-25T03:23:13.376Z,64.20
2019-02-25T03:25:40.113Z,64.60
2019-02-25T03:28:06.827Z,64.50
2019-02-25T03:30:33.618Z,64.80
2019-02-25T03:33:00.493Z,64.60
2019-02-25T03:35:27.254Z,64.50
2019-02-25T03:37:54.026Z,64.50
2019-02-25T03:40:22.379Z,65.10
2019-02-25T03:42:49.112Z,64.30
2019-02-25T03:45:17.992Z,64.50
2019-02-25T03:47:44.811Z,64.20
2019-02-25T03:50:11.813Z,64.40
2019-02-25T03:52:38.557Z,64.70
2019-02-25T03:55:13.672Z,65.40
2019-02-25T03:57:40.610Z,65.30
2019-02-25T04:00:12.463Z,65.30
2019-02-25T04:02:39.256Z,64.80
2019-02-25T04:05:06.411Z,66.20
2019-02-25T04:07:33.118Z,64.90
2019-02-25T04:09:59.882Z,64.80
2019-02-25T04:12:26.616Z,65.40
2019-02-25T04:14:53.442Z,65.10
2019-02-25T04:17:20.221Z,64.30
2019-02-25T04:19:46.915Z,65.00
2019-02-25T04:22:13.696Z,65.00
2019-02-25T04:24:40.411Z,65.20
2019-02-25T04:27:07.205Z,65.40
2019-02-25T04:29:33.928Z,65.00
2019-02-25T04:32:00.652Z,65.00
2019-02-25T04:34:27.453Z,65.30
2019-02-25T04:36:54.238Z,65.50
2019-02-25T04:39:20.977Z,65.60
2019-02-25T04:41:47.764Z,65.90
2019-02-25T04:44:14.484Z,66.00
2019-02-25T04:46:41.292Z,66.20
2019-02-25T04:49:08.019Z,66.10
2019-02-25T04:51:34.740Z,65.70
2019-02-25T04:54:01.512Z,65.90
2019-02-25T04:56:28.224Z,66.20
2019-02-25T04:58:55.027Z,66.00
2019-02-25T05:01:21.761Z,66.00
2019-02-25T05:03:48.486Z,65.00
2019-02-25T05:06:15.273Z,65.50
2019-02-25T05:08:41.996Z,65.60
2019-02-25T05:11:08.812Z,65.60
2019-02-25T05:13:35.547Z,65.20
2019-02-25T05:16:02.265Z,65.00
2019-02-25T05:18:29.052Z,66.00
2019-02-25T05:20:55.791Z,65.50
2019-02-25T05:23:22.518Z,65.70
2019-02-25T05:25:49.323Z,65.90
2019-02-25T05:28:16.060Z,65.90
2019-02-25T05:30:42.775Z,65.70
2019-02-25T05:33:09.580Z,65.40
2019-02-25T05:35:36.290Z,65.10
2019-02-25T05:38:03.046Z,65.40
2019-02-25T05:40:29.796Z,65.10
2019-02-25T05:42:56.519Z,65.00
2019-02-25T05:45:23.311Z,65.60
2019-02-25T05:47:50.068Z,65.40
2019-02-25T05:50:20.413Z,64.50
2019-02-25T05:52:47.223Z,65.30
2019-02-25T05:55:16.708Z,65.80
2019-02-25T05:57:43.546Z,65.70
2019-02-25T06:00:18.697Z,65.20
2019-02-25T06:02:45.443Z,65.20
2019-02-25T06:05:12.239Z,65.40
2019-02-25T06:07:38.964Z,66.60
2019-02-25T06:10:08.725Z,66.10
2019-02-25T06:12:35.486Z,66.20
2019-02-25T06:15:03.516Z,66.20
2019-02-25T06:17:30.297Z,66.30
2019-02-25T06:19:57.013Z,66.20
2019-02-25T06:22:43.764Z,66.50
2019-02-25T06:25:12.699Z,66.30
2019-02-25T06:27:39.422Z,66.10
2019-02-25T06:30:21.699Z,66.10
2019-02-25T06:32:48.480Z,66.10
2019-02-25T06:35:15.375Z,66.50
2019-02-25T06:37:42.887Z,66.70
2019-02-25T06:40:15.325Z,66.00
2019-02-25T06:42:41.934Z,66.10
2019-02-25T06:45:12.199Z,66.20
2019-02-25T06:47:38.879Z,66.40
2019-02-25T06:50:08.658Z,65.40
2019-02-25T06:52:35.437Z,65.40
2019-02-25T06:55:03.930Z,65.40
2019-02-25T06:57:30.677Z,65.90
2019-02-25T06:59:57.408Z,66.00
2019-02-25T07:02:24.314Z,65.90
2019-02-25T07:04:51.036Z,66.00
2019-02-25T07:07:17.771Z,66.10
2019-02-25T07:09:44.568Z,67.10
2019-02-25T07:12:11.291Z,66.00
2019-02-25T07:14:38.032Z,65.20
2019-02-25T07:17:04.768Z,64.80
2019-02-25T07:19:31.495Z,65.00
2019-02-25T07:21:58.282Z,65.30
2019-02-25T07:24:25.021Z,64.40
2019-02-25T07:26:51.745Z,64.40
2019-02-25T07:29:18.525Z,64.90
2019-02-25T07:31:45.263Z,65.00
2019-02-25T07:34:12.005Z,65.10
2019-02-25T07:36:38.822Z,65.30
2019-02-25T07:39:06.057Z,64.80
2019-02-25T07:41:32.833Z,64.90
2019-02-25T07:43:59.626Z,64.90
2019-02-25T07:46:26.344Z,65.00
2019-02-25T07:48:53.074Z,65.10
2019-02-25T07:51:19.845Z,65.20
2019-02-25T07:53:46.612Z,65.10
2019-02-25T07:56:13.343Z,64.90
2019-02-25T07:58:40.148Z,64.80
2019-02-25T08:01:06.858Z,65.30
2019-02-25T08:03:33.581Z,64.70
2019-02-25T08:06:00.336Z,64.60
2019-02-25T08:08:27.077Z,64.30
2019-02-25T08:10:53.799Z,63.80
2019-02-25T08:13:20.566Z,64.40
2019-02-25T08:15:47.277Z,64.70
2019-02-25T08:18:14.066Z,65.50
2019-02-25T08:20:40.777Z,65.40
2019-02-25T08:23:07.491Z,64.80
2019-02-25T08:25:34.257Z,64.80
2019-02-25T08:28:00.994Z,64.90
2019-02-25T08:30:27.725Z,64.90
2019-02-25T08:32:54.490Z,65.00
2019-02-25T08:35:49.439Z,64.90
2019-02-25T08:38:16.235Z,64.80
2019-02-25T08:40:47.011Z,64.90
2019-02-25T08:43:16.510Z,64.60
2019-02-25T08:45:43.316Z,64.30
2019-02-25T08:48:10.058Z,63.60
2019-02-25T08:50:36.774Z,63.40
2019-02-25T08:53:03.545Z,63.40
2019-02-25T08:55:30.265Z,63.80
2019-02-25T08:57:57.058Z,63.90
2019-02-25T09:00:23.788Z,63.90
2019-02-25T09:02:50.514Z,64.00
2019-02-25T09:05:17.299Z,63.70
2019-02-25T09:07:44.030Z,63.90
2019-02-25T09:10:13.636Z,64.20
2019-02-25T09:12:40.470Z,63.60
2019-02-25T09:15:11.812Z,63.50
2019-02-25T09:17:43.735Z,63.30
2019-02-25T09:20:12.486Z,63.50
2019-02-25T09:22:39.229Z,63.60
2019-02-25T09:25:12.330Z,64.10
2019-02-25T09:27:39.160Z,64.30
2019-02-25T09:30:16.114Z,64.10
2019-02-25T09:32:43.144Z,64.00
2019-02-25T09:35:09.999Z,64.30
2019-02-25T09:37:37.354Z,63.80
2019-02-25T09:40:11.234Z,63.00
2019-02-25T09:42:38.012Z,62.90
2019-02-25T09:45:12.881Z,62.30
2019-02-25T09:47:39.616Z,61.60
2019-02-25T09:50:16.329Z,61.90
2019-02-25T09:52:43.050Z,61.70
2019-02-25T09:55:12.179Z,61.50
2019-02-25T09:57:38.955Z,60.10
2019-02-25T10:00:19.269Z,59.90
2019-02-25T10:02:46.042Z,60.10
2019-02-25T10:05:12.966Z,59.70
2019-02-25T10:07:39.703Z,59.50
2019-02-25T10:10:17.121Z,59.50
2019-02-25T10:12:43.863Z,58.40
2019-02-25T10:15:15.796Z,58.30
2019-02-25T10:17:42.603Z,58.30
2019-02-25T10:20:09.411Z,57.70
2019-02-25T10:22:36.135Z,57.20
2019-02-25T10:25:08.845Z,59.10
2019-02-25T10:27:35.581Z,58.90
2019-02-25T10:30:09.140Z,59.20
2019-02-25T10:32:35.854Z,59.40
2019-02-25T10:35:03.483Z,59.30
2019-02-25T10:37:30.273Z,58.90
2019-02-25T10:39:56.999Z,57.50
2019-02-25T10:42:23.794Z,58.30
2019-02-25T10:44:50.604Z,56.30
2019-02-25T10:47:19.496Z,55.20
2019-02-25T10:49:46.275Z,54.00
2019-02-25T10:52:14.984Z,53.60
2019-02-25T10:54:41.590Z,53.30
2019-02-25T10:57:08.386Z,52.80
2019-02-25T10:59:36.900Z,53.20
2019-02-25T11:02:03.765Z,52.30
2019-02-25T11:04:30.535Z,52.30
2019-02-25T11:06:58.548Z,52.50
2019-02-25T11:09:25.885Z,51.80
2019-02-25T11:11:53.092Z,51.00
2019-02-25T11:14:21.247Z,50.90
2019-02-25T11:16:49.703Z,50.60
2019-02-25T11:19:16.556Z,51.50
2019-02-25T11:21:44.303Z,52.00
2019-02-25T11:24:11.249Z,50.70
2019-02-25T11:26:37.985Z,50.80
2019-02-25T11:29:05.613Z,50.70
2019-02-25T11:31:33.314Z,51.40
2019-02-25T11:34:00.709Z,51.60
2019-02-25T11:36:28.633Z,51.40
2019-02-25T11:38:55.338Z,51.20
2019-02-25T11:41:22.116Z,49.70
2019-02-25T11:43:50.992Z,49.00
2019-02-25T11:46:17.433Z,47.70
2019-02-25T11:48:44.248Z,45.70
2019-02-25T11:51:10.956Z,43.80
2019-02-25T11:53:37.675Z,40.40
2019-02-25T11:56:04.437Z,39.30
2019-02-25T11:58:31.158Z,38.00
2019-02-25T12:00:57.952Z,35.70
2019-02-25T12:03:24.682Z,36.50
2019-02-25T12:05:52.618Z,37.10
2019-02-25T12:08:19.517Z,34.50
2019-02-25T12:10:46.240Z,34.10
2019-02-25T12:13:12.964Z,33.40
2019-02-25T12:15:39.706Z,33.40
2019-02-25T12:18:06.424Z,30.20
2019-02-25T12:20:33.216Z,30.90
2019-02-25T12:22:59.972Z,32.00
2019-02-25T12:25:26.706Z,32.10
2019-02-25T12:27:53.492Z,32.20
2019-02-25T12:30:23.230Z,31.30
2019-02-25T12:32:50.041Z,29.90
2019-02-25T12:35:17.036Z,29.20
2019-02-25T12:37:43.738Z,30.90
2019-02-25T12:40:13.005Z,30.10
2019-02-25T12:42:39.794Z,29.60
2019-02-25T12:45:09.484Z,29.70
2019-02-25T12:47:36.206Z,28.60
2019-02-25T12:50:07.956Z,28.40
2019-02-25T12:52:34.596Z,29.60
2019-02-25T12:55:01.382Z,30.20
2019-02-25T12:57:28.106Z,29.60
2019-02-25T12:59:54.876Z,29.60
2019-02-25T13:02:21.642Z,29.80
2019-02-25T13:04:48.361Z,29.30
2019-02-25T13:07:15.109Z,29.70
2019-02-25T13:09:41.897Z,30.00
2019-02-25T13:12:08.619Z,30.00
2019-02-25T13:14:35.381Z,30.10
2019-02-25T13:17:02.163Z,29.70
2019-02-25T13:19:28.889Z,29.80
2019-02-25T13:21:55.625Z,30.00
2019-02-25T13:24:22.434Z,29.70
2019-02-25T13:26:49.162Z,31.50
2019-02-25T13:29:15.895Z,32.20
2019-02-25T13:31:42.672Z,33.10
2019-02-25T13:34:09.400Z,32.00
2019-02-25T13:36:36.158Z,32.50
2019-02-25T13:39:05.493Z,32.70
2019-02-25T13:41:32.241Z,32.00
2019-02-25T13:43:59.330Z,31.60
2019-02-25T13:46:26.081Z,31.90
2019-02-25T13:48:52.818Z,30.70
2019-02-25T13:51:19.611Z,32.30
2019-02-25T13:53:46.335Z,33.90
2019-02-25T13:56:13.072Z,34.00
2019-02-25T13:58:39.849Z,34.10
2019-02-25T14:01:06.569Z,34.80
2019-02-25T14:03:33.298Z,33.80
2019-02-25T14:06:00.206Z,32.30
2019-02-25T14:08:27.230Z,32.00
2019-02-25T14:10:53.975Z,33.00
2019-02-25T14:13:20.774Z,33.90
2019-02-25T14:15:47.594Z,34.80
2019-02-25T14:18:14.533Z,35.00
2019-02-25T14:20:41.912Z,33.60
2019-02-25T14:23:08.745Z,34.00
2019-02-25T14:25:35.779Z,35.30
2019-02-25T14:28:07.870Z,34.40
2019-02-25T14:30:33.882Z,34.70
2019-02-25T14:33:00.689Z,34.30
2019-02-25T14:35:31.540Z,33.80
2019-02-25T14:38:07.259Z,34.60
2019-02-25T14:40:32.546Z,35.20
2019-02-25T14:42:59.944Z,34.20
2019-02-25T14:45:28.849Z,35.30
2019-02-25T14:47:59.617Z,36.00
2019-02-25T14:50:25.311Z,35.70
2019-02-25T14:52:52.265Z,36.20
2019-02-25T14:55:19.166Z,36.50
2019-02-25T14:57:45.905Z,37.00
2019-02-25T15:00:26.158Z,36.80
2019-02-25T15:02:53.419Z,37.80
2019-02-25T15:05:22.455Z,39.20
2019-02-25T15:07:50.822Z,40.70
2019-02-25T15:10:17.891Z,42.80
2019-02-25T15:12:44.939Z,44.00
2019-02-25T15:15:22.379Z,44.00
2019-02-25T15:17:50.585Z,44.60
2019-02-25T15:20:20.841Z,45.30
2019-02-25T15:22:47.921Z,46.50
2019-02-25T15:25:16.368Z,46.90
2019-02-25T15:27:43.171Z,47.70
2019-02-25T15:30:22.711Z,47.00
2019-02-25T15:32:55.800Z,48.00
2019-02-25T15:35:18.266Z,48.50
2019-02-25T15:37:46.713Z,49.20
2019-02-25T15:40:18.000Z,48.70
2019-02-25T15:42:44.114Z,49.70
2019-02-25T15:45:16.991Z,50.10
2019-02-25T15:47:44.821Z,50.70
2019-02-25T15:50:15.815Z,51.60
2019-02-25T15:52:42.809Z,51.50
2019-02-25T15:55:15.019Z,51.50
2019-02-25T15:57:41.716Z,52.00
2019-02-25T16:00:19.070Z,51.90
2019-02-25T16:02:50.840Z,51.70
2019-02-25T16:05:17.643Z,52.00
2019-02-25T16:07:44.369Z,52.40
2019-02-25T16:10:11.984Z,52.60
2019-02-25T16:12:40.289Z,52.30
2019-02-25T16:15:15.743Z,51.50
2019-02-25T16:17:46.422Z,52.70
2019-02-25T16:20:17.563Z,53.20
2019-02-25T16:22:44.668Z,53.50
2019-02-25T16:25:23.065Z,53.50
2019-02-25T16:27:52.135Z,53.60
2019-02-25T16:30:21.327Z,53.60
2019-02-25T16:32:48.411Z,53.80
2019-02-25T16:35:15.761Z,53.90
2019-02-25T16:37:42.807Z,54.00
2019-02-25T16:40:17.407Z,54.00
2019-02-25T16:42:44.343Z,54.00
2019-02-25T16:45:22.412Z,54.60
2019-02-25T16:47:49.140Z,54.60
2019-02-25T16:50:16.957Z,54.20
2019-02-25T16:52:47.336Z,54.40
2019-02-25T16:55:22.656Z,55.10
2019-02-25T16:57:50.165Z,55.30
2019-02-25T17:00:29.625Z,55.60
2019-02-25T17:02:54.535Z,56.00
2019-02-25T17:05:21.366Z,55.60
2019-02-25T17:07:49.007Z,55.60
2019-02-25T17:10:19.404Z,56.10
2019-02-25T17:12:47.924Z,55.60
2019-02-25T17:15:17.304Z,55.40
2019-02-25T17:17:44.100Z,55.10
2019-02-25T17:20:13.723Z,56.20
2019-02-25T17:22:40.440Z,56.50
2019-02-25T17:25:12.094Z,56.00
2019-02-25T17:27:39.152Z,56.10
2019-02-25T17:30:17.446Z,56.20
2019-02-25T17:32:46.628Z,56.30
2019-02-25T17:35:16.777Z,56.10
2019-02-25T17:37:43.630Z,56.30
2019-02-25T17:40:13.763Z,56.40
2019-02-25T17:42:40.560Z,56.50
2019-02-25T17:45:25.046Z,56.10
2019-02-25T17:47:58.210Z,55.80
2019-02-25T17:50:21.326Z,56.60
2019-02-25T17:52:48.167Z,57.00
2019-02-25T17:55:29.290Z,57.00
2019-02-25T17:57:56.861Z,57.40
2019-02-25T18:00:26.679Z,57.20
2019-02-25T18:02:54.997Z,57.20
2019-02-25T18:05:22.816Z,57.20
2019-02-25T18:07:49.959Z,56.90
2019-02-25T18:10:17.241Z,57.20
2019-02-25T18:12:44.479Z,57.10
2019-02-25T18:15:19.578Z,57.30
2019-02-25T18:17:48.883Z,55.80
2019-02-25T18:20:15.960Z,55.30
2019-02-25T18:22:43.134Z,56.50
2019-02-25T18:25:12.787Z,56.80
2019-02-25T18:27:41.387Z,57.00
2019-02-25T18:30:13.107Z,56.70
2019-02-25T18:32:40.427Z,57.30
2019-02-25T18:35:08.356Z,57.40
2019-02-25T18:37:35.892Z,57.40
2019-02-25T18:40:11.674Z,57.80
2019-02-25T18:42:40.854Z,57.50
2019-02-25T18:45:16.049Z,57.90
2019-02-25T18:47:43.659Z,58.40
2019-02-25T18:50:21.392Z,57.60
2019-02-25T18:52:50.142Z,57.40
2019-02-25T18:55:20.056Z,58.10
2019-02-25T18:57:50.147Z,57.70
2019-02-25T19:00:28.254Z,56.20
2019-02-25T19:02:56.179Z,57.00
2019-02-25T19:05:25.405Z,57.70
2019-02-25T19:07:55.379Z,57.40
2019-02-25T19:10:24.585Z,57.00
2019-02-25T19:12:56.328Z,57.00
2019-02-25T19:15:23.752Z,57.20
2019-02-25T19:17:52.160Z,57.70
2019-02-25T19:20:19.798Z,57.90
2019-02-25T19:22:46.980Z,56.90
2019-02-25T19:25:18.127Z,56.90
2019-02-25T19:27:47.969Z,57.60
2019-02-25T19:30:19.695Z,57.80
2019-02-25T19:32:46.906Z,57.80
2019-02-25T19:35:15.019Z,57.90
2019-02-25T19:37:44.317Z,57.60
2019-02-25T19:40:20.054Z,57.80
2019-02-25T19:42:51.339Z,58.00
2019-02-25T19:45:17.703Z,57.60
2019-02-25T19:47:45.592Z,57.50
2019-02-25T19:50:20.905Z,58.00
2019-02-25T19:52:48.118Z,58.00
2019-02-25T19:55:17.744Z,57.80
2019-02-25T19:57:44.395Z,58.20
2019-02-25T20:00:22.305Z,58.40
2019-02-25T20:02:49.179Z,57.70
2019-02-25T20:05:17.356Z,58.60
2019-02-25T20:07:45.280Z,59.10
2019-02-25T20:10:13.702Z,58.20
2019-02-25T20:12:40.942Z,57.80
2019-02-25T20:15:16.372Z,58.00
2019-02-25T20:17:46.241Z,58.10
2019-02-25T20:20:15.009Z,57.50
2019-02-25T20:22:41.819Z,57.80
2019-02-25T20:25:16.290Z,58.50
2019-02-25T20:27:42.875Z,58.40
2019-02-25T20:30:16.100Z,57.60
2019-02-25T20:32:44.739Z,57.70
2019-02-25T20:35:15.720Z,58.50
2019-02-25T20:37:43.102Z,58.30
2019-02-25T20:40:11.367Z,58.30
2019-02-25T20:42:38.185Z,59.00
2019-02-25T20:45:25.222Z,59.50
2019-02-25T20:47:54.465Z,59.00
2019-02-25T20:50:22.346Z,58.80
2019-02-25T20:52:49.173Z,59.00
2019-02-25T20:55:15.896Z,59.40
2019-02-25T20:57:43.731Z,59.40
2019-02-25T21:00:20.696Z,59.70
2019-02-25T21:02:47.417Z,59.20
2019-02-25T21:05:16.718Z,58.40
2019-02-25T21:07:42.995Z,58.90
2019-02-25T21:10:14.030Z,59.40
2019-02-25T21:12:40.824Z,59.10
2019-02-25T21:15:13.506Z,59.20
2019-02-25T21:17:40.317Z,59.20
2019-02-25T21:20:14.194Z,59.00
2019-02-25T21:22:41.241Z,59.30
2019-02-25T21:25:10.589Z,59.40
2019-02-25T21:27:39.073Z,59.30
2019-02-25T21:30:16.441Z,59.90
2019-02-25T21:32:45.663Z,59.40
2019-02-25T21:35:14.284Z,59.30
2019-02-25T21:37:45.437Z,59.20
2019-02-25T21:40:22.295Z,59.20
2019-02-25T21:42:51.376Z,59.70
2019-02-25T21:45:20.209Z,59.90
2019-02-25T21:47:47.603Z,60.20
2019-02-25T21:50:20.227Z,59.90
2019-02-25T21:52:47.945Z,59.60
2019-02-25T21:55:18.102Z,59.80
2019-02-25T21:57:45.709Z,59.50
2019-02-25T22:00:20.657Z,59.50
2019-02-25T22:02:50.925Z,59.80
2019-02-25T22:05:18.957Z,59.50
2019-02-25T22:07:47.554Z,59.00
2019-02-25T22:10:18.288Z,59.30
2019-02-25T22:12:45.023Z,59.80
2019-02-25T22:15:18.035Z,59.40
2019-02-25T22:17:46.205Z,59.80
2019-02-25T22:20:16.466Z,59.80
2019-02-25T22:22:43.248Z,59.70
2019-02-25T22:25:18.109Z,59.50
2019-02-25T22:27:45.584Z,59.40
2019-02-25T22:30:17.295Z,60.00
2019-02-25T22:32:44.002Z,60.30
2019-02-25T22:35:14.737Z,59.70
2019-02-25T22:37:44.165Z,60.10
2019-02-25T22:40:15.050Z,60.30
2019-02-25T22:42:42.002Z,60.40
2019-02-25T22:45:20.540Z,59.70
2019-02-25T22:47:47.323Z,60.10
2019-02-25T22:50:15.311Z,60.20
2019-02-25T22:52:42.208Z,60.50
2019-02-25T22:55:12.240Z,60.50
2019-02-25T22:57:40.850Z,60.30
2019-02-25T23:00:34.985Z,60.30
2019-02-25T23:03:01.716Z,60.50
2019-02-25T23:05:29.528Z,60.10
2019-02-25T23:07:56.276Z,59.40
2019-02-25T23:10:24.208Z,60.00
2019-02-25T23:12:51.447Z,60.00
2019-02-25T23:15:19.981Z,60.60
2019-02-25T23:17:46.715Z,60.70
2019-02-25T23:20:13.437Z,59.60
2019-02-25T23:22:40.211Z,59.20
2019-02-25T23:25:10.560Z,60.00
2019-02-25T23:27:38.944Z,60.70
2019-02-25T23:30:13.442Z,60.50
2019-02-25T23:32:40.188Z,60.30
2019-02-25T23:35:09.449Z,60.80
2019-02-25T23:37:36.000Z,60.70
2019-02-25T23:40:07.755Z,60.70
2019-02-25T23:42:37.380Z,60.80
2019-02-25T23:45:12.996Z,60.80
2019-02-25T23:47:41.143Z,61.10
2019-02-25T23:50:13.177Z,61.10
2019-02-25T23:52:39.270Z,61.10
2019-02-25T23:55:14.299Z,61.20
2019-02-25T23:57:39.473Z,60.80
